Time;durP1;ratioP1;P1;durP2;ratioP2;P2;SDS_P1;SDS_P2;PMS_P1;PMS_P2;Temp;Humidity;BMP_temperature;BMP_pressure;BME280_temperature;BME280_humidity;BME280_pressure;Samples;Min_cycle;Max_cycle;Signal;HPM_P1;HPM_P2
2023/02/16 00:01:14;;;;;;;7.6;4.3;;;;;;;2.11;73.79785;947.3909;;;;
2023/02/16 00:03:41;;;;;;;5.5;3.9;;;;;;;2.06;73.71191;947.3937;;;;
2023/02/16 00:06:06;;;;;;;7.1;4.5;;;;;;;2.01;73.99316;947.5081;;;;
2023/02/16 00:08:31;;;;;;;7.6;4.3;;;;;;;2.07;73.76758;947.5087;;;;
2023/02/16 00:15:52;;;;;;;6.6;4;;;;;;;2.08;73.6123;947.4889;;;;
2023/02/16 00:18:35;;;;;;;6.6;3.8;;;;;;;2.11;73.59668;947.5098;;;;
2023/02/16 00:21:02;;;;;;;7.1;4;;;;;;;2.27;72.81738;947.384;;;;
2023/02/16 00:23:30;;;;;;;5.5;3.8;;;;;;;2.15;73.19043;947.408;;;;
2023/02/16 00:26:21;;;;;;;6;3.2;;;;;;;2.08;73.42383;947.3566;;;;
2023/02/16 00:28:47;;;;;;;4.9;3.4;;;;;;;1.99;73.64453;947.2217;;;;
2023/02/16 00:31:32;;;;;;;6.2;3.3;;;;;;;1.97;73.79688;947.2974;;;;
2023/02/16 00:33:55;;;;;;;5.5;2.5;;;;;;;1.92;74.26855;947.2881;;;;
2023/02/16 00:36:36;;;;;;;4.5;3.5;;;;;;;1.88;74.38379;947.267;;;;
2023/02/16 00:39:16;;;;;;;2.4;1.8;;;;;;;1.9;74.44434;947.178;;;;
2023/02/16 00:43:04;;;;;;;2.4;1.8;;;;;;;2.11;73.43945;947.1522;;;;
2023/02/16 00:45:42;;;;;;;2.7;1.6;;;;;;;2.16;72.87793;947.1481;;;;
2023/02/16 00:48:15;;;;;;;1.9;1.4;;;;;;;2.16;72.85547;947.1078;;;;
2023/02/16 00:50:40;;;;;;;2.3;1.7;;;;;;;2.13;73.0957;947.0785;;;;
2023/02/16 00:53:12;;;;;;;3.6;2;;;;;;;2.03;73.54883;947.132;;;;
2023/02/16 00:55:37;;;;;;;2.8;2.1;;;;;;;1.99;73.81152;947.0995;;;;
2023/02/16 00:58:03;;;;;;;2.7;2.1;;;;;;;1.97;74.02051;947.0781;;;;
2023/02/16 01:00:28;;;;;;;3.1;2;;;;;;;2.04;73.80762;947.0986;;;;
2023/02/16 01:02:54;;;;;;;3.6;2.5;;;;;;;2.04;73.63965;947.1284;;;;
2023/02/16 01:05:23;;;;;;;7.2;2.7;;;;;;;2.09;73.43848;947.1074;;;;
2023/02/16 01:11:09;;;;;;;3.3;2.2;;;;;;;2.04;73.17188;947.0094;;;;
2023/02/16 01:13:34;;;;;;;4.4;2.7;;;;;;;2.02;73.20215;947.0522;;;;
2023/02/16 01:16:05;;;;;;;4.7;2.6;;;;;;;1.96;73.4375;947.074;;;;
2023/02/16 01:18:30;;;;;;;3.5;2.4;;;;;;;1.76;74.58691;947.007;;;;
2023/02/16 01:20:56;;;;;;;3.5;1.9;;;;;;;1.65;75.07129;946.9163;;;;
2023/02/16 01:23:22;;;;;;;2.8;2;;;;;;;1.53;75.70996;946.9832;;;;
2023/02/16 01:25:47;;;;;;;3.3;2.2;;;;;;;1.48;75.91309;946.8883;;;;
2023/02/16 01:28:12;;;;;;;2.7;1.8;;;;;;;1.46;76.11035;946.8894;;;;
2023/02/16 01:30:37;;;;;;;3.2;2.1;;;;;;;1.43;76.40918;946.9077;;;;
2023/02/16 01:33:08;;;;;;;3.4;2.1;;;;;;;1.44;76.62109;946.9261;;;;
2023/02/16 01:35:33;;;;;;;3.2;2;;;;;;;1.53;76.28027;946.8481;;;;
2023/02/16 01:38:09;;;;;;;3.2;2;;;;;;;1.56;76.13965;946.8251;;;;
2023/02/16 01:40:35;;;;;;;3.6;2.2;;;;;;;1.64;75.75195;946.8563;;;;
2023/02/16 01:43:05;;;;;;;5;2.3;;;;;;;1.69;75.58203;946.759;;;;
2023/02/16 01:45:41;;;;;;;3.4;2.1;;;;;;;1.76;75.21484;946.7822;;;;
2023/02/16 01:48:11;;;;;;;3.3;2.2;;;;;;;1.78;75.09375;946.7523;;;;
2023/02/16 01:50:36;;;;;;;4.7;2.5;;;;;;;1.73;75.23145;946.7708;;;;
2023/02/16 01:53:02;;;;;;;3.7;2.1;;;;;;;1.6;75.7002;946.7272;;;;
2023/02/16 01:55:27;;;;;;;2.9;2.1;;;;;;;1.47;76.125;946.6447;;;;
2023/02/16 01:57:57;;;;;;;2.9;1.9;;;;;;;1.38;76.4873;946.6954;;;;
2023/02/16 02:00:28;;;;;;;1.9;1.6;;;;;;;1.33;76.67871;946.6329;;;;
2023/02/16 02:05:33;;;;;;;3.8;3.2;;;;;;;1.23;77.10742;946.7023;;;;
2023/02/16 02:05:41;;;;;;;3.3;2.1;;;;;;;1.17;77.48828;946.6778;;;;
2023/02/16 02:07:50;;;;;;;2.6;1.7;;;;;;;1.22;77.37598;946.6669;;;;
2023/02/16 02:10:17;;;;;;;2.7;2.1;;;;;;;1.25;77.24512;946.5404;;;;
2023/02/16 02:12:44;;;;;;;3.7;2;;;;;;;1.29;77.19727;946.6049;;;;
2023/02/16 02:15:21;;;;;;;3.4;1.8;;;;;;;1.33;77.02637;946.6018;;;;
2023/02/16 02:17:53;;;;;;;4.4;2.3;;;;;;;1.31;77.11133;946.5455;;;;
2023/02/16 02:20:18;;;;;;;4.2;2.2;;;;;;;1.35;76.94043;946.5807;;;;
2023/02/16 02:25:09;;;;;;;6.2;3.3;;;;;;;1.44;76.23047;946.5291;;;;
2023/02/16 02:27:39;;;;;;;8.4;4.1;;;;;;;1.38;76.35449;946.4738;;;;
2023/02/16 02:30:04;;;;;;;9.6;4.1;;;;;;;1.33;76.62402;946.4423;;;;
2023/02/16 02:32:30;;;;;;;7.1;4;;;;;;;1.27;76.83594;946.4769;;;;
2023/02/16 02:37:27;;;;;;;6.3;3;;;;;;;1.32;76.62305;946.5221;;;;
2023/02/16 02:39:52;;;;;;;5;2.9;;;;;;;1.31;76.56348;946.467;;;;
2023/02/16 02:43:17;;;;;;;4.3;2.8;;;;;;;1.26;76.89063;946.577;;;;
2023/02/16 02:45:42;;;;;;;5;2.7;;;;;;;1.27;77.10254;946.6043;;;;
2023/02/16 02:48:08;;;;;;;8.1;3.2;;;;;;;1.36;76.5625;946.5869;;;;
2023/02/16 02:50:33;;;;;;;6.7;3.2;;;;;;;1.47;75.98926;946.6272;;;;
2023/02/16 02:53:02;;;;;;;5;2.7;;;;;;;1.36;76.00293;946.6827;;;;
2023/02/16 03:03:55;;;;;;;4.6;2.2;;;;;;;1.3;76.27344;946.7506;;;;
2023/02/16 03:06:20;;;;;;;4.3;2.1;;;;;;;1.29;76.11328;946.8128;;;;
2023/02/16 03:08:45;;;;;;;2.5;2.1;;;;;;;1.25;76.16309;946.8394;;;;
2023/02/16 03:13:41;;;;;;;3;2;;;;;;;1.41;75.49902;946.834;;;;
2023/02/16 03:16:06;;;;;;;4.4;2.3;;;;;;;1.43;75.37891;946.8267;;;;
2023/02/16 03:30:55;;;;;;;5.8;3;;;;;;;1.03;76.9834;946.9741;;;;
2023/02/16 03:33:21;;;;;;;4;2.2;;;;;;;1.08;76.80176;946.9486;;;;
2023/02/16 03:35:46;;;;;;;3.5;2.3;;;;;;;1.15;76.6123;946.9054;;;;
2023/02/16 03:38:14;;;;;;;21.1;12.6;;;;;;;1.11;76.8291;946.9387;;;;
2023/02/16 03:40:46;;;;;;;20.7;11.3;;;;;;;1.11;77.01855;946.9532;;;;
2023/02/16 03:43:14;;;;;;;10.1;5.7;;;;;;;1.05;77.1875;946.9217;;;;
2023/02/16 03:45:39;;;;;;;13.1;6.4;;;;;;;1.08;77.07031;946.9855;;;;
2023/02/16 03:48:09;;;;;;;32.3;29.1;;;;;;;1.01;77.41406;946.9387;;;;
2023/02/16 03:50:40;;;;;;;7.1;4.8;;;;;;;1;77.35645;946.9331;;;;
2023/02/16 03:56:56;;;;;;;4;2.3;;;;;;;1.05;76.72949;946.9426;;;;
2023/02/16 03:59:21;;;;;;;4.4;2.3;;;;;;;0.96;77.12695;946.8605;;;;
2023/02/16 04:02:44;;;;;;;3.4;2;;;;;;;1.04;76.96094;946.8731;;;;
2023/02/16 04:05:09;;;;;;;3.5;2.6;;;;;;;0.96;77.02441;946.9182;;;;
2023/02/16 04:07:35;;;;;;;3;2.4;;;;;;;0.89;77.33887;946.9444;;;;
2023/02/16 04:10:09;;;;;;;3.6;2.3;;;;;;;0.82;77.75879;946.9264;;;;
2023/02/16 04:19:58;;;;;;;3.3;2;;;;;;;0.79;78.11133;946.9874;;;;
2023/02/16 04:22:32;;;;;;;5;2.7;;;;;;;0.69;78.62793;946.9838;;;;
2023/02/16 04:25:01;;;;;;;4.2;1.9;;;;;;;0.7;78.89746;946.9835;;;;
2023/02/16 04:27:28;;;;;;;2.7;2;;;;;;;0.85;78.33496;946.9906;;;;
2023/02/16 04:29:59;;;;;;;3.6;2.1;;;;;;;0.94;77.74707;947.0425;;;;
2023/02/16 04:32:24;;;;;;;5.1;3;;;;;;;0.96;77.47266;947.0283;;;;
2023/02/16 04:34:49;;;;;;;2.8;1.9;;;;;;;0.88;77.58105;947.0673;;;;
2023/02/16 04:37:14;;;;;;;4.3;2.8;;;;;;;0.89;77.38184;947.1175;;;;
2023/02/16 04:39:42;;;;;;;7.2;5.1;;;;;;;0.85;77.53125;947.1113;;;;
2023/02/16 04:42:07;;;;;;;3.9;2.9;;;;;;;0.63;78.51563;947.128;;;;
2023/02/16 04:45:16;;;;;;;5.3;3.2;;;;;;;0.61;78.95898;947.1349;;;;
2023/02/16 04:47:46;;;;;;;5.6;3;;;;;;;0.61;79.27148;947.1434;;;;
2023/02/16 04:50:13;;;;;;;6.1;3.3;;;;;;;0.66;79.16797;947.1565;;;;
2023/02/16 04:52:47;;;;;;;4;2.8;;;;;;;0.74;78.81641;947.11;;;;
2023/02/16 04:55:19;;;;;;;7.1;3.5;;;;;;;0.75;78.26074;947.1008;;;;
2023/02/16 04:57:51;;;;;;;10.5;5.7;;;;;;;0.74;78.10059;947.1331;;;;
2023/02/16 05:00:21;;;;;;;8.3;4.8;;;;;;;0.82;77.99121;947.1252;;;;
2023/02/16 05:02:46;;;;;;;8.2;3.2;;;;;;;1;77.02344;947.1573;;;;
2023/02/16 05:05:20;;;;;;;5;2.8;;;;;;;1.1;76.28027;947.0938;;;;
2023/02/16 05:07:52;;;;;;;4.2;2.6;;;;;;;1.07;75.87305;947.1369;;;;
2023/02/16 05:10:21;;;;;;;5.3;2.8;;;;;;;0.95;76.25391;947.0659;;;;
2023/02/16 05:15:19;;;;;;;5.2;2.6;;;;;;;0.73;77.47461;947.1896;;;;
2023/02/16 05:17:48;;;;;;;3.7;1.9;;;;;;;0.66;78.08594;947.1697;;;;
2023/02/16 05:21:28;;;;;;;5;2.3;;;;;;;0.65;78.2627;947.1741;;;;
2023/02/16 05:22:45;;;;;;;4.1;2.1;;;;;;;0.68;78.22363;947.1169;;;;
2023/02/16 05:25:10;;;;;;;5;3.4;;;;;;;0.66;78.43359;947.0132;;;;
2023/02/16 05:27:38;;;;;;;5.2;3.3;;;;;;;0.78;77.91992;947.1183;;;;
2023/02/16 05:30:03;;;;;;;7.4;4.4;;;;;;;0.96;77.22559;947.1158;;;;
2023/02/16 05:32:32;;;;;;;4.4;2.3;;;;;;;1.06;76.56445;947.1033;;;;
2023/02/16 05:34:57;;;;;;;4.5;3.2;;;;;;;1.16;76.05664;947.149;;;;
2023/02/16 05:37:26;;;;;;;4.6;2.7;;;;;;;1.15;76.07617;947.0637;;;;
2023/02/16 05:39:58;;;;;;;4.8;2.7;;;;;;;1.09;76.6582;947.1164;;;;
2023/02/16 05:49:58;;;;;;;8.6;3.6;;;;;;;1.27;75.97559;947.1531;;;;
2023/02/16 05:52:26;;;;;;;3.3;2.1;;;;;;;1.37;75.58008;947.1735;;;;
2023/02/16 05:54:55;;;;;;;6.4;2.6;;;;;;;1.45;74.95801;947.2271;;;;
2023/02/16 05:57:20;;;;;;;7.2;3.2;;;;;;;1.36;75.33301;947.2177;;;;
2023/02/16 06:00:12;;;;;;;6.1;2.9;;;;;;;1.38;75.33594;947.2849;;;;
2023/02/16 06:02:37;;;;;;;5.3;2.5;;;;;;;1.4;74.84766;947.2762;;;;
2023/02/16 06:05:02;;;;;;;5.3;2.9;;;;;;;1.32;74.89063;947.3161;;;;
2023/02/16 06:07:27;;;;;;;3.5;2.4;;;;;;;1.33;74.94629;947.3044;;;;
2023/02/16 06:09:57;;;;;;;3;2.6;;;;;;;1.41;74.82813;947.3613;;;;
2023/02/16 06:12:22;;;;;;;4.4;2.6;;;;;;;1.56;74.22949;947.3606;;;;
2023/02/16 06:14:52;;;;;;;4.9;3.1;;;;;;;1.57;73.9834;947.3295;;;;
2023/02/16 06:17:22;;;;;;;5.7;3;;;;;;;1.44;74.50879;947.4152;;;;
2023/02/16 06:19:47;;;;;;;6;2.8;;;;;;;1.43;74.71973;947.4503;;;;
2023/02/16 06:22:19;;;;;;;5.2;2.9;;;;;;;1.33;75.16992;947.4363;;;;
2023/02/16 06:24:50;;;;;;;6.8;3;;;;;;;1.29;75.38672;947.4766;;;;
2023/02/16 06:27:21;;;;;;;4.5;2.3;;;;;;;1.28;75.54199;947.4803;;;;
2023/02/16 06:29:51;;;;;;;6.9;2.5;;;;;;;1.3;75.35645;947.4671;;;;
2023/02/16 06:32:17;;;;;;;4.2;2.4;;;;;;;1.27;75.58496;947.4753;;;;
2023/02/16 06:37:32;;;;;;;6.5;2.6;;;;;;;1.43;75.24512;947.3217;;;;
2023/02/16 06:57:34;;;;;;;22.7;12.2;;;;;;;2.06;73.4541;947.5854;;;;
2023/02/16 07:00:03;;;;;;;21.3;9.7;;;;;;;2.04;73.13672;947.5756;;;;
2023/02/16 07:02:28;;;;;;;19.3;10.3;;;;;;;2.16;73.05566;947.6434;;;;
2023/02/16 07:04:56;;;;;;;18.1;9.5;;;;;;;2.28;72.55078;947.6749;;;;
2023/02/16 07:07:22;;;;;;;17.2;7.3;;;;;;;2.46;72.52637;947.6448;;;;
2023/02/16 07:09:50;;;;;;;13.2;5.6;;;;;;;2.93;71.48438;947.7651;;;;
2023/02/16 07:12:15;;;;;;;8.5;4.9;;;;;;;3.35;70.29883;947.7755;;;;
2023/02/16 07:14:42;;;;;;;10.9;5.6;;;;;;;3.84;68.89355;947.823;;;;
2023/02/16 07:17:09;;;;;;;12.5;6.6;;;;;;;3.96;66.29492;947.823;;;;
2023/02/16 07:19:36;;;;;;;12.8;6;;;;;;;4.13;65.51172;947.7833;;;;
2023/02/16 07:22:01;;;;;;;16.8;8.8;;;;;;;4.33;65.54004;947.7764;;;;
2023/02/16 07:24:29;;;;;;;13.4;7.3;;;;;;;4.42;64.63281;947.7969;;;;
2023/02/16 07:26:59;;;;;;;16.5;6.5;;;;;;;4.2;65.04883;947.8622;;;;
2023/02/16 07:29:28;;;;;;;12;5.1;;;;;;;4.05;65.18262;947.7752;;;;
2023/02/16 07:31:55;;;;;;;12.9;7.1;;;;;;;3.79;65.99805;947.8723;;;;
2023/02/16 07:34:18;;;;;;;17.2;7.9;;;;;;;3.58;67.23535;947.8557;;;;
2023/02/16 07:36:47;;;;;;;15.5;7.2;;;;;;;3.5;67.57031;947.8237;;;;
2023/02/16 07:39:17;;;;;;;11.3;6.5;;;;;;;3.48;68.19629;947.8688;;;;
2023/02/16 07:41:42;;;;;;;11.5;6.3;;;;;;;3.65;68.05566;947.8362;;;;
2023/02/16 07:44:12;;;;;;;13.8;5.5;;;;;;;3.77;67.50098;947.8823;;;;
2023/02/16 07:46:43;;;;;;;10.5;4.7;;;;;;;4.13;66.59082;947.8614;;;;
2023/02/16 07:49:12;;;;;;;17.2;8.1;;;;;;;4.54;65.60938;947.8162;;;;
2023/02/16 07:51:39;;;;;;;28.5;11.9;;;;;;;4.85;65.81348;947.8906;;;;
2023/02/16 07:54:03;;;;;;;22.3;8.3;;;;;;;5.01;63.37988;947.8744;;;;
2023/02/16 07:56:28;;;;;;;14;6.2;;;;;;;4.57;63.70996;947.8884;;;;
2023/02/16 07:58:56;;;;;;;23.2;6.5;;;;;;;4.48;64.4043;947.9149;;;;
2023/02/16 08:01:28;;;;;;;13.2;4.1;;;;;;;4.52;63.36426;947.9901;;;;
2023/02/16 08:03:55;;;;;;;15.7;4.4;;;;;;;4.67;63.28418;948.0125;;;;
2023/02/16 08:06:20;;;;;;;16.3;3.7;;;;;;;4.75;62.65527;948.003;;;;
2023/02/16 08:09:40;;;;;;;8.7;2.7;;;;;;;4.64;62.60449;947.9883;;;;
2023/02/16 08:12:05;;;;;;;7.9;3.2;;;;;;;4.99;62.32813;947.9945;;;;
2023/02/16 08:14:52;;;;;;;8.2;2.7;;;;;;;5.13;62.0127;947.9794;;;;
2023/02/16 08:17:21;;;;;;;12.9;3.5;;;;;;;4.8;62.3916;947.9589;;;;
2023/02/16 08:19:47;;;;;;;14.3;4.3;;;;;;;4.91;62.23828;948.0153;;;;
2023/02/16 08:22:12;;;;;;;10.7;3.6;;;;;;;5.11;61.88477;947.9861;;;;
2023/02/16 08:25:43;;;;;;;8.6;4.1;;;;;;;5.03;62.58398;947.8549;;;;
2023/02/16 08:28:13;;;;;;;5.3;2.8;;;;;;;5.01;63.00879;947.9958;;;;
2023/02/16 08:30:41;;;;;;;7.8;3.3;;;;;;;5.05;63.2627;948.0016;;;;
2023/02/16 08:33:05;;;;;;;16;4.3;;;;;;;5.27;62.66406;947.9953;;;;
2023/02/16 08:35:35;;;;;;;7.8;3.7;;;;;;;5.35;62.14648;947.9967;;;;
2023/02/16 08:38:05;;;;;;;11.3;4;;;;;;;5.34;62.03027;948.0134;;;;
2023/02/16 08:40:29;;;;;;;8;3;;;;;;;5.38;62.29688;948.0611;;;;
2023/02/16 08:42:58;;;;;;;13.3;4.4;;;;;;;5.82;60.98242;948.0441;;;;
2023/02/16 08:45:31;;;;;;;13.9;3.7;;;;;;;6.19;59.50781;947.9999;;;;
2023/02/16 08:48:03;;;;;;;11.4;3.6;;;;;;;6.55;57.75098;947.9863;;;;
2023/02/16 08:50:33;;;;;;;8.1;2.7;;;;;;;6.98;56.43652;947.9781;;;;
2023/02/16 08:53:03;;;;;;;6.8;2.1;;;;;;;6.94;55.2998;947.9338;;;;
2023/02/16 08:55:31;;;;;;;9.6;2.6;;;;;;;7.18;54.28906;947.8555;;;;
2023/02/16 08:57:59;;;;;;;9.7;2.4;;;;;;;7.19;54.73145;947.9127;;;;
2023/02/16 09:00:36;;;;;;;8.5;2.4;;;;;;;7.28;53.81348;947.8809;;;;
2023/02/16 09:03:01;;;;;;;15.7;3.5;;;;;;;7.58;52.32031;947.8566;;;;
2023/02/16 09:05:29;;;;;;;4.6;2.2;;;;;;;7.52;52.00684;947.9128;;;;
2023/02/16 09:07:59;;;;;;;5.8;2.2;;;;;;;7.43;52.94922;947.8805;;;;
2023/02/16 09:10:26;;;;;;;6.5;2.1;;;;;;;8.44;51.3916;947.8242;;;;
2023/02/16 09:12:57;;;;;;;8.1;3.2;;;;;;;8.47;49.65723;947.7634;;;;
2023/02/16 09:15:29;;;;;;;12.2;3.7;;;;;;;9.31;49.17285;947.7452;;;;
2023/02/16 09:17:55;;;;;;;16.9;4.5;;;;;;;10.58;45.6748;947.7009;;;;
2023/02/16 09:20:26;;;;;;;5.7;3;;;;;;;11.88;42.74219;947.74;;;;
2023/02/16 09:36:42;;;;;;;8.4;2.5;;;;;;;13.34;39.93359;947.6283;;;;
2023/02/16 09:38:53;;;;;;;8.9;3.3;;;;;;;14.17;38.82422;947.533;;;;
2023/02/16 09:41:24;;;;;;;4.3;2;;;;;;;13.79;38.07715;947.5747;;;;
2023/02/16 09:43:50;;;;;;;5.5;1.7;;;;;;;13.69;37.66602;947.595;;;;
2023/02/16 09:46:15;;;;;;;4.1;1.7;;;;;;;14.04;37.5918;947.5284;;;;
2023/02/16 09:48:44;;;;;;;4.9;1.8;;;;;;;14.79;37.01074;947.5095;;;;
2023/02/16 09:51:15;;;;;;;7.6;2.4;;;;;;;15.27;35.27344;947.4722;;;;
2023/02/16 09:53:58;;;;;;;4.9;1.6;;;;;;;15.25;35.76855;947.4359;;;;
2023/02/16 09:56:24;;;;;;;2.4;1.5;;;;;;;15.53;35.11035;947.3792;;;;
2023/02/16 09:58:49;;;;;;;5.1;2.1;;;;;;;16.23;34.42578;947.3664;;;;
2023/02/16 10:01:16;;;;;;;3.8;1.7;;;;;;;16.2;34.11133;947.3025;;;;
2023/02/16 10:03:44;;;;;;;5.8;1.8;;;;;;;16.62;34.17871;947.2944;;;;
2023/02/16 10:06:09;;;;;;;7.7;2.1;;;;;;;17.3;32.12109;947.3024;;;;
2023/02/16 10:08:41;;;;;;;12.3;2.5;;;;;;;16.18;31.83203;947.2478;;;;
2023/02/16 10:11:06;;;;;;;5.8;2.1;;;;;;;16.1;32.87695;947.205;;;;
2023/02/16 10:13:31;;;;;;;7.2;2.3;;;;;;;15.53;33.45801;947.2324;;;;
2023/02/16 10:15:58;;;;;;;4.3;1.4;;;;;;;15.4;32.52539;947.22;;;;
2023/02/16 10:18:23;;;;;;;3.3;1.3;;;;;;;15.55;33.41406;947.1481;;;;
2023/02/16 10:20:48;;;;;;;4.6;1.6;;;;;;;15.18;32.95801;947.1487;;;;
2023/02/16 10:23:13;;;;;;;3.5;1.6;;;;;;;15.08;34.75098;947.1722;;;;
2023/02/16 10:25:38;;;;;;;3.5;1.6;;;;;;;14.84;34.33984;947.1365;;;;
2023/02/16 10:28:04;;;;;;;4.6;1.8;;;;;;;14.65;35.21289;947.0787;;;;
2023/02/16 10:30:29;;;;;;;4.8;1.5;;;;;;;13.97;34.80078;947.0517;;;;
2023/02/16 10:32:55;;;;;;;2.6;1.4;;;;;;;13.38;35.40918;946.9481;;;;
2023/02/16 10:35:24;;;;;;;2.5;0.9;;;;;;;13.69;35.79102;946.9892;;;;
2023/02/16 10:37:52;;;;;;;2.6;0.9;;;;;;;14.57;34.70996;946.9696;;;;
2023/02/16 10:40:17;;;;;;;6.3;1.4;;;;;;;15.67;32.91504;946.9316;;;;
2023/02/16 10:42:43;;;;;;;2;0.9;;;;;;;16.62;32.36133;946.7539;;;;
2023/02/16 10:45:09;;;;;;;2.3;0.9;;;;;;;17.38;29.72656;946.7941;;;;
2023/02/16 10:47:36;;;;;;;3.8;1.1;;;;;;;17.69;29.59668;946.8116;;;;
2023/02/16 10:50:01;;;;;;;3.7;1.2;;;;;;;18.44;28.9375;946.8036;;;;
2023/02/16 10:52:31;;;;;;;3.6;0.9;;;;;;;18.24;27.4834;946.7636;;;;
2023/02/16 10:54:59;;;;;;;3.2;1;;;;;;;18.97;28.25098;946.751;;;;
2023/02/16 10:57:25;;;;;;;1.9;1;;;;;;;19.11;28.30664;946.7766;;;;
2023/02/16 10:59:50;;;;;;;3.3;0.8;;;;;;;19.8;27.60449;946.7894;;;;
2023/02/16 11:02:16;;;;;;;2;0.9;;;;;;;20.39;26.06445;946.741;;;;
2023/02/16 11:04:41;;;;;;;1.8;0.9;;;;;;;20.11;25.80273;946.7383;;;;
2023/02/16 11:07:10;;;;;;;2.7;1.4;;;;;;;19.38;27.68262;946.7208;;;;
2023/02/16 11:09:41;;;;;;;3.2;1.2;;;;;;;18.77;30.30859;946.7395;;;;
2023/02/16 11:12:08;;;;;;;2.4;1.2;;;;;;;18.59;28.83008;946.7316;;;;
2023/02/16 11:14:33;;;;;;;2.1;1.1;;;;;;;18.42;29.73926;946.6788;;;;
2023/02/16 11:17:02;;;;;;;1.1;0.9;;;;;;;18.28;28.77637;946.6867;;;;
2023/02/16 11:19:32;;;;;;;1;0.9;;;;;;;17.26;29.88086;946.6721;;;;
2023/02/16 11:21:58;;;;;;;2.5;0.9;;;;;;;17.15;29.44434;946.6447;;;;
2023/02/16 11:24:25;;;;;;;2.1;1.1;;;;;;;17.24;28.8584;946.6593;;;;
2023/02/16 11:26:52;;;;;;;1.9;1.2;;;;;;;17.6;28.74316;946.6591;;;;
2023/02/16 11:29:19;;;;;;;2.1;1.2;;;;;;;17.84;29.7002;946.6735;;;;
2023/02/16 11:31:46;;;;;;;2.5;1.5;;;;;;;18.55;28.38672;946.6633;;;;
2023/02/16 11:34:15;;;;;;;1.9;1.7;;;;;;;17.89;30.21387;946.616;;;;
2023/02/16 11:36:46;;;;;;;3.8;1.7;;;;;;;17.69;30.04883;946.6409;;;;
2023/02/16 11:39:12;;;;;;;2.8;1.8;;;;;;;17.43;30.14746;946.6476;;;;
2023/02/16 11:41:42;;;;;;;2.3;2;;;;;;;18.06;30.36426;946.6355;;;;
2023/02/16 11:44:09;;;;;;;2.8;2.1;;;;;;;19.13;28.93652;946.6481;;;;
2023/02/16 11:46:37;;;;;;;4.7;2.9;;;;;;;19.7;27.9707;946.6194;;;;
2023/02/16 11:49:02;;;;;;;5.3;2.9;;;;;;;20.51;26.77246;946.5117;;;;
2023/02/16 11:51:27;;;;;;;5.8;3.3;;;;;;;20.47;27.85645;946.4727;;;;
2023/02/16 11:53:53;;;;;;;5.8;3.4;;;;;;;21.94;25.38281;946.4891;;;;
2023/02/16 11:56:26;;;;;;;5.9;3.2;;;;;;;22.67;23.49902;946.4601;;;;
2023/02/16 11:58:49;;;;;;;4.1;2.9;;;;;;;22.74;24.38379;946.4868;;;;
2023/02/16 12:01:22;;;;;;;5.4;3.2;;;;;;;22.89;23.63965;946.4026;;;;
2023/02/16 12:03:47;;;;;;;7.6;4.1;;;;;;;22.73;24.37109;946.4059;;;;
2023/02/16 12:06:15;;;;;;;5.2;3.3;;;;;;;23.14;24.07617;946.3997;;;;
2023/02/16 12:08:42;;;;;;;5.5;3.7;;;;;;;22.87;24.94238;946.3251;;;;
2023/02/16 12:11:08;;;;;;;6.1;3.7;;;;;;;23.42;24.97363;946.3519;;;;
2023/02/16 12:13:36;;;;;;;5.6;3.4;;;;;;;25.37;22.60254;946.2745;;;;
2023/02/16 12:16:07;;;;;;;6.9;3.6;;;;;;;25.02;23.3291;946.2598;;;;
2023/02/16 12:18:33;;;;;;;5.4;3.6;;;;;;;25.42;22.92383;946.1666;;;;
2023/02/16 12:21:00;;;;;;;9;3.9;;;;;;;25.24;22.06445;946.068;;;;
2023/02/16 12:23:32;;;;;;;5.8;3.9;;;;;;;25.76;21.97168;946.046;;;;
2023/02/16 12:25:57;;;;;;;6.4;3.8;;;;;;;23.74;24.01465;946.0056;;;;
2023/02/16 12:28:25;;;;;;;5.7;3.5;;;;;;;23.98;23.94531;946.0093;;;;
2023/02/16 12:30:51;;;;;;;6.7;3.5;;;;;;;24.7;23.79492;945.9896;;;;
2023/02/16 12:33:15;;;;;;;5.6;3.7;;;;;;;26.9;21.20996;945.9394;;;;
2023/02/16 12:35:48;;;;;;;5.9;3.6;;;;;;;27.71;20.19238;945.8722;;;;
2023/02/16 12:38:18;;;;;;;5.9;3.2;;;;;;;28.48;19.90527;945.8053;;;;
2023/02/16 12:40:49;;;;;;;4.3;3;;;;;;;29.85;17.91504;945.8357;;;;
2023/02/16 12:43:18;;;;;;;4.5;3.1;;;;;;;29.29;18.14355;945.7651;;;;
2023/02/16 12:45:46;;;;;;;4.9;2.8;;;;;;;29.17;18.13867;945.7112;;;;
2023/02/16 12:48:12;;;;;;;5.7;3.5;;;;;;;28.16;19.38086;945.7252;;;;
2023/02/16 12:50:37;;;;;;;4.4;3;;;;;;;28.57;19.08887;945.5648;;;;
2023/02/16 12:53:02;;;;;;;4.1;2.8;;;;;;;27.21;20.03906;945.6187;;;;
2023/02/16 12:55:27;;;;;;;5;3.6;;;;;;;23.91;23.54102;945.5047;;;;
2023/02/16 12:57:52;;;;;;;3.4;2.6;;;;;;;23.21;24.52734;945.5998;;;;
2023/02/16 13:00:26;;;;;;;4.5;3.1;;;;;;;24.24;23.32324;945.5012;;;;
2023/02/16 13:03:06;;;;;;;6.7;3.2;;;;;;;25.7;21.83887;945.4405;;;;
2023/02/16 13:05:34;;;;;;;5.5;3.1;;;;;;;25.53;21.70117;945.3818;;;;
2023/02/16 13:08:02;;;;;;;5;3.1;;;;;;;27.97;19.74023;945.4328;;;;
2023/02/16 13:10:31;;;;;;;3.7;2.7;;;;;;;30.4;17.36328;945.3304;;;;
2023/02/16 13:13:00;;;;;;;3.7;2.5;;;;;;;31.83;15.86035;945.3964;;;;
2023/02/16 13:15:29;;;;;;;4;3;;;;;;;31.14;16.17188;945.363;;;;
2023/02/16 13:18:00;;;;;;;4.7;3.1;;;;;;;30.66;16.99121;945.3766;;;;
2023/02/16 13:20:29;;;;;;;4.1;3;;;;;;;30.44;16.68457;945.3011;;;;
2023/02/16 13:22:55;;;;;;;5.5;2.6;;;;;;;32.71;15.14746;945.2905;;;;
2023/02/16 13:25:26;;;;;;;4.3;3.1;;;;;;;32.58;15.04688;945.3451;;;;
2023/02/16 13:27:51;;;;;;;4.9;2.9;;;;;;;33.52;14.42871;945.3038;;;;
2023/02/16 13:30:23;;;;;;;4.3;3.1;;;;;;;33.4;14.59375;945.2145;;;;
2023/02/16 13:32:49;;;;;;;3.6;2.6;;;;;;;33.07;14.63086;945.293;;;;
2023/02/16 13:35:18;;;;;;;4.2;2.9;;;;;;;33.28;14.45703;945.2497;;;;
2023/02/16 13:37:47;;;;;;;4;2.8;;;;;;;32.38;14.65625;945.2472;;;;
2023/02/16 13:40:24;;;;;;;3.4;2.8;;;;;;;31.84;15.05859;945.2244;;;;
2023/02/16 13:42:49;;;;;;;3.7;2.6;;;;;;;32.8;14.5625;945.2332;;;;
2023/02/16 13:45:14;;;;;;;4.4;3;;;;;;;30.84;15.62305;945.2162;;;;
2023/02/16 13:47:46;;;;;;;4.2;3;;;;;;;29.33;17.05957;945.1965;;;;
2023/02/16 13:50:20;;;;;;;5.8;3;;;;;;;30.7;15.90527;945.1875;;;;
2023/02/16 13:52:52;;;;;;;4.6;3.1;;;;;;;30.33;16.05957;945.1362;;;;
2023/02/16 13:55:21;;;;;;;5;3.1;;;;;;;30.35;16.22754;945.1213;;;;
2023/02/16 13:57:47;;;;;;;5.8;3.3;;;;;;;30.72;15.79883;945.177;;;;
2023/02/16 14:00:19;;;;;;;7.3;3.9;;;;;;;30.46;16.12305;945.1779;;;;
2023/02/16 14:02:49;;;;;;;6;3.8;;;;;;;31.48;15.40527;945.1875;;;;
2023/02/16 14:05:18;;;;;;;5.9;3.7;;;;;;;30.7;15.80957;945.1387;;;;
2023/02/16 14:07:45;;;;;;;4.9;3.3;;;;;;;29.58;16.42578;945.1481;;;;
2023/02/16 14:10:15;;;;;;;6;2.9;;;;;;;28.78;16.61133;945.135;;;;
2023/02/16 14:12:43;;;;;;;6.1;3.2;;;;;;;24.92;19.90234;945.1238;;;;
2023/02/16 14:15:17;;;;;;;4.9;2.9;;;;;;;26.22;18.88379;945.1397;;;;
2023/02/16 14:17:50;;;;;;;4.7;2.7;;;;;;;24.75;20.15332;945.0554;;;;
2023/02/16 14:20:21;;;;;;;4.2;2.8;;;;;;;25.05;19.69531;945.0767;;;;
2023/02/16 14:22:47;;;;;;;5;2.9;;;;;;;24.79;20.27344;945.084;;;;
2023/02/16 14:25:15;;;;;;;4.4;2.9;;;;;;;26.74;18.58496;945.0281;;;;
2023/02/16 14:27:42;;;;;;;6.3;2.7;;;;;;;27.14;18.18652;945.0825;;;;
2023/02/16 14:30:07;;;;;;;5.9;2.9;;;;;;;26.96;18.27441;945.071;;;;
2023/02/16 14:32:39;;;;;;;4.4;2.8;;;;;;;26.81;18.35059;945.0616;;;;
2023/02/16 14:35:04;;;;;;;4;2.7;;;;;;;27.27;18.41699;945.073;;;;
2023/02/16 14:37:37;;;;;;;3.7;2.8;;;;;;;28.16;17.77637;945.0781;;;;
2023/02/16 14:40:02;;;;;;;6.2;2.9;;;;;;;27.82;17.75098;945.0413;;;;
2023/02/16 14:42:27;;;;;;;5;2.7;;;;;;;28.01;17.41406;945.0294;;;;
2023/02/16 14:44:52;;;;;;;4.3;3;;;;;;;28.16;17.75293;945.0567;;;;
2023/02/16 14:47:23;;;;;;;3.6;2.6;;;;;;;27.61;17.68359;945.0856;;;;
2023/02/16 14:49:54;;;;;;;4.3;2.6;;;;;;;26.94;18.37988;945.046;;;;
2023/02/16 14:52:16;;;;;;;3.3;2.5;;;;;;;27.07;18.13672;945.0564;;;;
2023/02/16 14:54:43;;;;;;;4.2;2.7;;;;;;;26.65;18.49902;945.062;;;;
2023/02/16 14:57:08;;;;;;;5.3;2.7;;;;;;;27.2;18.41406;945.0522;;;;
2023/02/16 14:59:33;;;;;;;5.4;2.5;;;;;;;28.17;17.72949;945.0614;;;;
2023/02/16 15:01:58;;;;;;;6.2;2.7;;;;;;;27.58;17.88379;945.0616;;;;
2023/02/16 15:04:30;;;;;;;4;3;;;;;;;27.87;17.88379;945.0352;;;;
2023/02/16 15:06:57;;;;;;;4.3;2.8;;;;;;;26.95;18.45117;945.0969;;;;
2023/02/16 15:09:25;;;;;;;4.8;2.7;;;;;;;23.55;21.22852;945.1525;;;;
2023/02/16 15:12:22;;;;;;;4.3;2.7;;;;;;;23;21.90723;945.1772;;;;
2023/02/16 15:14:19;;;;;;;3.1;2.6;;;;;;;23.39;22.03223;945.1611;;;;
2023/02/16 15:16:52;;;;;;;5;2.9;;;;;;;22.95;21.88086;945.1729;;;;
2023/02/16 15:19:20;;;;;;;3.9;2.5;;;;;;;23.44;21.70605;945.1591;;;;
2023/02/16 15:21:45;;;;;;;3.7;2.5;;;;;;;22.3;22.74023;945.1636;;;;
2023/02/16 15:24:10;;;;;;;4.5;2.6;;;;;;;21.91;23.31836;945.1573;;;;
2023/02/16 15:26:37;;;;;;;3.8;2.6;;;;;;;21.3;23.74219;945.0518;;;;
2023/02/16 15:29:04;;;;;;;5.6;2.8;;;;;;;20.48;24.18945;945.105;;;;
2023/02/16 15:31:32;;;;;;;9.3;2.9;;;;;;;18.67;26.69629;945.1777;;;;
2023/02/16 15:33:58;;;;;;;5.4;2.9;;;;;;;17.91;27.60254;945.1775;;;;
2023/02/16 15:36:23;;;;;;;7.6;4;;;;;;;16.93;29.2666;945.171;;;;
2023/02/16 15:38:52;;;;;;;4.7;2.8;;;;;;;16.54;29.80859;945.152;;;;
2023/02/16 15:41:17;;;;;;;5;2.9;;;;;;;15.81;30.90234;945.2335;;;;
2023/02/16 15:43:43;;;;;;;5.4;2.8;;;;;;;15.25;31.68262;945.1627;;;;
2023/02/16 15:46:12;;;;;;;4.6;3.5;;;;;;;14.66;32.72363;945.2414;;;;
2023/02/16 15:48:41;;;;;;;7.6;2.9;;;;;;;14.6;33.11035;945.3298;;;;
2023/02/16 15:51:06;;;;;;;6.7;3.1;;;;;;;14.08;33.99219;945.3209;;;;
2023/02/16 15:53:36;;;;;;;5.8;2.9;;;;;;;13.89;33.96582;945.308;;;;
2023/02/16 15:56:03;;;;;;;7;4.7;;;;;;;13.84;35.06641;945.2963;;;;
2023/02/16 15:58:28;;;;;;;9.5;6.2;;;;;;;13.64;36.00488;945.2983;;;;
2023/02/16 16:01:01;;;;;;;12.5;6.3;;;;;;;13.3;36.8623;945.3121;;;;
2023/02/16 16:03:31;;;;;;;9.1;5.4;;;;;;;13.09;37.16504;945.274;;;;
2023/02/16 16:05:56;;;;;;;16.8;9.2;;;;;;;12.82;38.38281;945.3698;;;;
2023/02/16 16:08:21;;;;;;;5.9;3.3;;;;;;;12.64;37.88477;945.4024;;;;
2023/02/16 16:10:46;;;;;;;4.2;2.9;;;;;;;12.32;40.13672;945.4509;;;;
2023/02/16 16:13:15;;;;;;;8.9;3.3;;;;;;;12.02;39.16992;945.4774;;;;